sensor_id;sensor_type;location;lat;lon;timestamp;temperature;humidity
29201;DHT22;16244;51.956;12.980;2023-03-03T00:01:50;-0.70;99.90
29201;DHT22;16244;51.956;12.980;2023-03-03T00:04:17;-0.60;99.90
29201;DHT22;16244;51.956;12.980;2023-03-03T00:06:45;-0.70;99.90
29201;DHT22;16244;51.956;12.980;2023-03-03T00:09:12;-0.60;99.90
29201;DHT22;16244;51.956;12.980;2023-03-03T00:11:40;-0.50;99.90
29201;DHT22;16244;51.956;12.980;2023-03-03T00:14:17;-0.40;99.90
29201;DHT22;16244;51.956;12.980;2023-03-03T00:16:50;-0.50;99.90
29201;DHT22;16244;51.956;12.980;2023-03-03T00:19:19;-0.50;99.90
29201;DHT22;16244;51.956;12.980;2023-03-03T00:21:49;-0.40;99.90
29201;DHT22;16244;51.956;12.980;2023-03-03T00:24:20;-0.40;99.90
29201;DHT22;16244;51.956;12.980;2023-03-03T00:26:50;-0.40;99.90
29201;DHT22;16244;51.956;12.980;2023-03-03T00:29:33;-0.50;99.90
29201;DHT22;16244;51.956;12.980;2023-03-03T00:32:21;-0.50;99.90
29201;DHT22;16244;51.956;12.980;2023-03-03T00:34:49;-0.50;99.90
29201;DHT22;16244;51.956;12.980;2023-03-03T00:37:27;-0.50;99.90
29201;DHT22;16244;51.956;12.980;2023-03-03T00:42:57;-0.30;99.90
29201;DHT22;16244;51.956;12.980;2023-03-03T00:45:40;-0.40;99.90
29201;DHT22;16244;51.956;12.980;2023-03-03T00:48:23;-0.40;99.90
29201;DHT22;16244;51.956;12.980;2023-03-03T00:50:54;-0.50;99.90
29201;DHT22;16244;51.956;12.980;2023-03-03T00:53:26;-0.50;99.90
29201;DHT22;16244;51.956;12.980;2023-03-03T00:55:56;-0.50;99.90
29201;DHT22;16244;51.956;12.980;2023-03-03T00:58:27;-0.50;99.90
29201;DHT22;16244;51.956;12.980;2023-03-03T01:00:58;-0.50;99.90
29201;DHT22;16244;51.956;12.980;2023-03-03T01:03:27;-0.50;99.90
29201;DHT22;16244;51.956;12.980;2023-03-03T01:05:54;-0.50;99.90
29201;DHT22;16244;51.956;12.980;2023-03-03T01:08:22;-0.40;99.90
29201;DHT22;16244;51.956;12.980;2023-03-03T01:10:51;-0.40;99.90
29201;DHT22;16244;51.956;12.980;2023-03-03T01:13:21;-0.40;99.90
29201;DHT22;16244;51.956;12.980;2023-03-03T01:15:49;-0.50;99.90
29201;DHT22;16244;51.956;12.980;2023-03-03T01:18:17;-0.70;99.90
29201;DHT22;16244;51.956;12.980;2023-03-03T01:20:47;-0.70;99.90
29201;DHT22;16244;51.956;12.980;2023-03-03T01:23:14;-0.60;99.90
29201;DHT22;16244;51.956;12.980;2023-03-03T01:25:42;-0.70;99.90
29201;DHT22;16244;51.956;12.980;2023-03-03T01:28:09;-0.70;99.90
29201;DHT22;16244;51.956;12.980;2023-03-03T01:30:37;-0.80;99.90
29201;DHT22;16244;51.956;12.980;2023-03-03T01:33:05;-0.90;99.90
29201;DHT22;16244;51.956;12.980;2023-03-03T01:35:32;-0.80;99.90
29201;DHT22;16244;51.956;12.980;2023-03-03T01:38:02;-0.80;99.90
29201;DHT22;16244;51.956;12.980;2023-03-03T01:40:30;-0.80;99.90
29201;DHT22;16244;51.956;12.980;2023-03-03T01:42:59;-0.80;99.90
29201;DHT22;16244;51.956;12.980;2023-03-03T01:45:27;-0.80;99.90
29201;DHT22;16244;51.956;12.980;2023-03-03T01:47:59;-0.80;99.90
29201;DHT22;16244;51.956;12.980;2023-03-03T01:50:35;-0.80;99.90
29201;DHT22;16244;51.956;12.980;2023-03-03T01:53:11;-0.70;99.90
29201;DHT22;16244;51.956;12.980;2023-03-03T01:55:40;-0.60;99.90
29201;DHT22;16244;51.956;12.980;2023-03-03T01:58:11;-0.60;99.90
29201;DHT22;16244;51.956;12.980;2023-03-03T02:00:42;-0.70;99.90
29201;DHT22;16244;51.956;12.980;2023-03-03T02:03:11;-0.70;99.90
29201;DHT22;16244;51.956;12.980;2023-03-03T02:05:39;-0.60;99.90
29201;DHT22;16244;51.956;12.980;2023-03-03T02:08:11;-0.60;99.90
29201;DHT22;16244;51.956;12.980;2023-03-03T02:10:43;-0.60;99.90
29201;DHT22;16244;51.956;12.980;2023-03-03T02:13:11;-0.80;99.90
29201;DHT22;16244;51.956;12.980;2023-03-03T02:15:39;-0.80;99.90
29201;DHT22;16244;51.956;12.980;2023-03-03T02:18:09;-0.80;99.90
29201;DHT22;16244;51.956;12.980;2023-03-03T02:20:51;-0.70;99.90
29201;DHT22;16244;51.956;12.980;2023-03-03T02:23:25;-0.60;99.90
29201;DHT22;16244;51.956;12.980;2023-03-03T02:26:08;-0.60;99.90
29201;DHT22;16244;51.956;12.980;2023-03-03T02:28:37;-0.60;99.90
29201;DHT22;16244;51.956;12.980;2023-03-03T02:31:07;-0.70;99.90
29201;DHT22;16244;51.956;12.980;2023-03-03T02:33:38;-0.70;99.90
29201;DHT22;16244;51.956;12.980;2023-03-03T02:36:09;-0.80;99.90
29201;DHT22;16244;51.956;12.980;2023-03-03T02:38:42;-0.90;99.90
29201;DHT22;16244;51.956;12.980;2023-03-03T02:41:17;-1.00;99.90
29201;DHT22;16244;51.956;12.980;2023-03-03T02:43:51;-0.90;99.90
29201;DHT22;16244;51.956;12.980;2023-03-03T02:46:20;-0.90;99.90
29201;DHT22;16244;51.956;12.980;2023-03-03T02:48:47;-0.90;99.90
29201;DHT22;16244;51.956;12.980;2023-03-03T02:51:15;-0.90;99.90
29201;DHT22;16244;51.956;12.980;2023-03-03T02:53:42;-0.80;99.90
29201;DHT22;16244;51.956;12.980;2023-03-03T02:56:11;-0.80;99.90
29201;DHT22;16244;51.956;12.980;2023-03-03T02:58:39;-0.80;99.90
29201;DHT22;16244;51.956;12.980;2023-03-03T03:01:06;-0.70;99.90
29201;DHT22;16244;51.956;12.980;2023-03-03T03:03:34;-0.60;99.90
29201;DHT22;16244;51.956;12.980;2023-03-03T03:06:01;-0.60;99.90
29201;DHT22;16244;51.956;12.980;2023-03-03T03:08:29;-0.70;99.90
29201;DHT22;16244;51.956;12.980;2023-03-03T03:10:57;-0.70;99.90
29201;DHT22;16244;51.956;12.980;2023-03-03T03:13:26;-0.70;99.90
29201;DHT22;16244;51.956;12.980;2023-03-03T03:15:54;-0.70;99.90
29201;DHT22;16244;51.956;12.980;2023-03-03T03:18:21;-0.70;99.90
29201;DHT22;16244;51.956;12.980;2023-03-03T03:20:48;-0.70;99.90
29201;DHT22;16244;51.956;12.980;2023-03-03T03:23:16;-0.80;99.90
29201;DHT22;16244;51.956;12.980;2023-03-03T03:25:44;-0.80;99.90
29201;DHT22;16244;51.956;12.980;2023-03-03T03:28:13;-0.70;99.90
29201;DHT22;16244;51.956;12.980;2023-03-03T03:30:42;-0.70;99.90
29201;DHT22;16244;51.956;12.980;2023-03-03T03:33:11;-0.70;99.90
29201;DHT22;16244;51.956;12.980;2023-03-03T03:35:38;-0.70;99.90
29201;DHT22;16244;51.956;12.980;2023-03-03T03:38:11;-0.70;99.90
29201;DHT22;16244;51.956;12.980;2023-03-03T03:40:38;-0.80;99.90
29201;DHT22;16244;51.956;12.980;2023-03-03T03:43:06;-0.80;99.90
29201;DHT22;16244;51.956;12.980;2023-03-03T03:45:34;-0.70;99.90
29201;DHT22;16244;51.956;12.980;2023-03-03T03:48:03;-0.90;99.90
29201;DHT22;16244;51.956;12.980;2023-03-03T03:50:30;-0.90;99.90
29201;DHT22;16244;51.956;12.980;2023-03-03T03:52:58;-0.90;99.90
29201;DHT22;16244;51.956;12.980;2023-03-03T03:55:25;-1.00;99.90
29201;DHT22;16244;51.956;12.980;2023-03-03T03:57:54;-1.00;99.90
29201;DHT22;16244;51.956;12.980;2023-03-03T04:00:22;-1.00;99.90
29201;DHT22;16244;51.956;12.980;2023-03-03T04:02:50;-1.00;99.90
29201;DHT22;16244;51.956;12.980;2023-03-03T04:05:19;-1.00;99.90
29201;DHT22;16244;51.956;12.980;2023-03-03T04:07:47;-0.90;99.90
29201;DHT22;16244;51.956;12.980;2023-03-03T04:10:14;-0.90;99.90
29201;DHT22;16244;51.956;12.980;2023-03-03T04:12:43;-0.80;99.90
29201;DHT22;16244;51.956;12.980;2023-03-03T04:15:12;-0.90;99.90
29201;DHT22;16244;51.956;12.980;2023-03-03T04:17:41;-0.80;99.90
29201;DHT22;16244;51.956;12.980;2023-03-03T04:20:11;-0.70;99.90
29201;DHT22;16244;51.956;12.980;2023-03-03T04:22:40;-0.70;99.90
29201;DHT22;16244;51.956;12.980;2023-03-03T04:25:11;-0.80;99.90
29201;DHT22;16244;51.956;12.980;2023-03-03T04:27:41;-0.90;99.90
29201;DHT22;16244;51.956;12.980;2023-03-03T04:30:10;-0.90;99.90
29201;DHT22;16244;51.956;12.980;2023-03-03T04:32:38;-0.90;99.90
29201;DHT22;16244;51.956;12.980;2023-03-03T04:35:07;-0.90;99.90
29201;DHT22;16244;51.956;12.980;2023-03-03T04:37:35;-0.90;99.90
29201;DHT22;16244;51.956;12.980;2023-03-03T04:40:06;-1.00;99.90
29201;DHT22;16244;51.956;12.980;2023-03-03T04:42:34;-1.00;99.90
29201;DHT22;16244;51.956;12.980;2023-03-03T04:45:03;-1.00;99.90
29201;DHT22;16244;51.956;12.980;2023-03-03T04:47:30;-1.00;99.90
29201;DHT22;16244;51.956;12.980;2023-03-03T04:49:59;-1.00;99.90
29201;DHT22;16244;51.956;12.980;2023-03-03T04:52:27;-0.90;99.90
29201;DHT22;16244;51.956;12.980;2023-03-03T04:54:54;-0.90;99.90
29201;DHT22;16244;51.956;12.980;2023-03-03T04:57:23;-0.80;99.90
29201;DHT22;16244;51.956;12.980;2023-03-03T04:59:51;-0.80;99.90
29201;DHT22;16244;51.956;12.980;2023-03-03T05:02:18;-0.80;99.90
29201;DHT22;16244;51.956;12.980;2023-03-03T05:04:46;-0.70;99.90
29201;DHT22;16244;51.956;12.980;2023-03-03T05:07:14;-0.80;99.90
29201;DHT22;16244;51.956;12.980;2023-03-03T05:09:42;-0.70;99.90
29201;DHT22;16244;51.956;12.980;2023-03-03T05:12:10;-0.70;99.90
29201;DHT22;16244;51.956;12.980;2023-03-03T05:14:39;-0.80;99.90
29201;DHT22;16244;51.956;12.980;2023-03-03T05:17:07;-0.80;99.90
29201;DHT22;16244;51.956;12.980;2023-03-03T05:19:35;-0.80;99.90
29201;DHT22;16244;51.956;12.980;2023-03-03T05:22:02;-0.80;99.90
29201;DHT22;16244;51.956;12.980;2023-03-03T05:24:30;-0.80;99.90
29201;DHT22;16244;51.956;12.980;2023-03-03T05:26:57;-0.80;99.90
29201;DHT22;16244;51.956;12.980;2023-03-03T05:29:25;-0.70;99.90
29201;DHT22;16244;51.956;12.980;2023-03-03T05:31:55;-0.80;99.90
29201;DHT22;16244;51.956;12.980;2023-03-03T05:34:22;-0.70;99.90
29201;DHT22;16244;51.956;12.980;2023-03-03T05:36:50;-0.70;99.90
29201;DHT22;16244;51.956;12.980;2023-03-03T05:39:18;-0.70;99.90
29201;DHT22;16244;51.956;12.980;2023-03-03T05:41:45;-0.70;99.90
29201;DHT22;16244;51.956;12.980;2023-03-03T05:44:13;-0.70;99.90
29201;DHT22;16244;51.956;12.980;2023-03-03T05:46:40;-0.70;99.90
29201;DHT22;16244;51.956;12.980;2023-03-03T05:49:09;-0.70;99.90
29201;DHT22;16244;51.956;12.980;2023-03-03T05:51:36;-0.80;99.90
29201;DHT22;16244;51.956;12.980;2023-03-03T05:54:04;-0.80;99.90
29201;DHT22;16244;51.956;12.980;2023-03-03T05:56:32;-0.80;99.90
29201;DHT22;16244;51.956;12.980;2023-03-03T05:58:59;-0.80;99.90
29201;DHT22;16244;51.956;12.980;2023-03-03T06:01:27;-0.70;99.90
29201;DHT22;16244;51.956;12.980;2023-03-03T06:03:54;-0.70;99.90
29201;DHT22;16244;51.956;12.980;2023-03-03T06:06:23;-0.70;99.90
29201;DHT22;16244;51.956;12.980;2023-03-03T06:08:51;-0.70;99.90
29201;DHT22;16244;51.956;12.980;2023-03-03T06:11:19;-0.60;99.90
29201;DHT22;16244;51.956;12.980;2023-03-03T06:13:46;-0.60;99.90
29201;DHT22;16244;51.956;12.980;2023-03-03T06:16:13;-0.60;99.90
29201;DHT22;16244;51.956;12.980;2023-03-03T06:18:41;-0.60;99.90
29201;DHT22;16244;51.956;12.980;2023-03-03T06:21:09;-0.60;99.90
29201;DHT22;16244;51.956;12.980;2023-03-03T06:23:38;-0.60;99.90
29201;DHT22;16244;51.956;12.980;2023-03-03T06:26:05;-0.60;99.90
29201;DHT22;16244;51.956;12.980;2023-03-03T06:28:33;-0.50;99.90
29201;DHT22;16244;51.956;12.980;2023-03-03T06:31:00;-0.50;99.90
29201;DHT22;16244;51.956;12.980;2023-03-03T06:33:28;-0.40;99.90
29201;DHT22;16244;51.956;12.980;2023-03-03T06:35:55;-0.40;99.90
29201;DHT22;16244;51.956;12.980;2023-03-03T06:38:25;-0.40;99.90
29201;DHT22;16244;51.956;12.980;2023-03-03T06:40:57;-0.40;99.90
29201;DHT22;16244;51.956;12.980;2023-03-03T06:43:27;-0.40;99.90
29201;DHT22;16244;51.956;12.980;2023-03-03T06:45:54;-0.50;99.90
29201;DHT22;16244;51.956;12.980;2023-03-03T06:48:22;-0.50;99.90
29201;DHT22;16244;51.956;12.980;2023-03-03T06:50:49;-0.50;99.90
29201;DHT22;16244;51.956;12.980;2023-03-03T06:53:18;-0.50;99.90
29201;DHT22;16244;51.956;12.980;2023-03-03T06:55:46;-0.50;99.90
29201;DHT22;16244;51.956;12.980;2023-03-03T06:58:17;-0.60;99.90
29201;DHT22;16244;51.956;12.980;2023-03-03T07:00:49;-0.50;99.90
29201;DHT22;16244;51.956;12.980;2023-03-03T07:03:21;-0.60;99.90
29201;DHT22;16244;51.956;12.980;2023-03-03T07:05:49;-0.60;99.90
29201;DHT22;16244;51.956;12.980;2023-03-03T07:08:20;-0.70;99.90
29201;DHT22;16244;51.956;12.980;2023-03-03T07:10:49;-0.70;99.90
29201;DHT22;16244;51.956;12.980;2023-03-03T07:13:20;-0.60;99.90
29201;DHT22;16244;51.956;12.980;2023-03-03T07:15:49;-0.60;99.90
29201;DHT22;16244;51.956;12.980;2023-03-03T07:18:36;-0.50;99.90
29201;DHT22;16244;51.956;12.980;2023-03-03T07:21:13;-0.40;99.90
29201;DHT22;16244;51.956;12.980;2023-03-03T07:23:44;-0.40;99.90
29201;DHT22;16244;51.956;12.980;2023-03-03T07:26:13;-0.40;99.90
29201;DHT22;16244;51.956;12.980;2023-03-03T07:28:43;-0.30;99.90
29201;DHT22;16244;51.956;12.980;2023-03-03T07:31:30;-0.20;99.90
29201;DHT22;16244;51.956;12.980;2023-03-03T07:34:00;-0.20;99.90
29201;DHT22;16244;51.956;12.980;2023-03-03T07:36:34;-0.30;99.90
29201;DHT22;16244;51.956;12.980;2023-03-03T07:39:10;-0.30;99.90
29201;DHT22;16244;51.956;12.980;2023-03-03T07:41:41;-0.30;99.90
29201;DHT22;16244;51.956;12.980;2023-03-03T07:44:18;-0.30;99.90
29201;DHT22;16244;51.956;12.980;2023-03-03T07:46:47;-0.30;99.90
29201;DHT22;16244;51.956;12.980;2023-03-03T07:49:21;-0.30;99.90
29201;DHT22;16244;51.956;12.980;2023-03-03T07:51:53;-0.40;99.90
29201;DHT22;16244;51.956;12.980;2023-03-03T07:54:29;-0.40;99.90
29201;DHT22;16244;51.956;12.980;2023-03-03T07:56:58;-0.30;99.90
29201;DHT22;16244;51.956;12.980;2023-03-03T07:59:30;-0.20;99.90
29201;DHT22;16244;51.956;12.980;2023-03-03T08:02:01;-0.10;99.90
29201;DHT22;16244;51.956;12.980;2023-03-03T08:04:36;-0.10;99.90
29201;DHT22;16244;51.956;12.980;2023-03-03T08:07:10;-0.10;99.90
29201;DHT22;16244;51.956;12.980;2023-03-03T08:09:43;-0.20;99.90
29201;DHT22;16244;51.956;12.980;2023-03-03T08:12:30;-0.20;99.90
29201;DHT22;16244;51.956;12.980;2023-03-03T08:15:22;-0.10;99.90
29201;DHT22;16244;51.956;12.980;2023-03-03T08:17:51;0.00;99.90
29201;DHT22;16244;51.956;12.980;2023-03-03T08:20:41;0.00;99.90
29201;DHT22;16244;51.956;12.980;2023-03-03T08:23:10;0.00;99.90
29201;DHT22;16244;51.956;12.980;2023-03-03T08:25:38;-0.10;99.90
29201;DHT22;16244;51.956;12.980;2023-03-03T08:28:06;0.00;99.90
29201;DHT22;16244;51.956;12.980;2023-03-03T08:30:34;0.00;99.90
29201;DHT22;16244;51.956;12.980;2023-03-03T08:33:02;0.10;99.90
29201;DHT22;16244;51.956;12.980;2023-03-03T08:35:30;0.20;99.90
29201;DHT22;16244;51.956;12.980;2023-03-03T08:37:57;0.30;99.90
29201;DHT22;16244;51.956;12.980;2023-03-03T08:40:25;0.10;99.90
29201;DHT22;16244;51.956;12.980;2023-03-03T08:42:52;0.10;99.90
29201;DHT22;16244;51.956;12.980;2023-03-03T08:45:20;0.00;99.90
29201;DHT22;16244;51.956;12.980;2023-03-03T08:47:49;0.10;99.90
29201;DHT22;16244;51.956;12.980;2023-03-03T08:50:17;0.10;99.90
29201;DHT22;16244;51.956;12.980;2023-03-03T08:52:45;0.10;99.90
29201;DHT22;16244;51.956;12.980;2023-03-03T08:55:13;0.20;99.90
29201;DHT22;16244;51.956;12.980;2023-03-03T08:57:41;0.30;99.90
29201;DHT22;16244;51.956;12.980;2023-03-03T09:00:11;0.20;99.90
29201;DHT22;16244;51.956;12.980;2023-03-03T09:02:39;0.10;99.90
29201;DHT22;16244;51.956;12.980;2023-03-03T09:05:09;0.10;99.90
29201;DHT22;16244;51.956;12.980;2023-03-03T09:07:37;0.20;99.90
29201;DHT22;16244;51.956;12.980;2023-03-03T09:10:06;0.30;99.90
29201;DHT22;16244;51.956;12.980;2023-03-03T09:12:35;0.40;99.90
29201;DHT22;16244;51.956;12.980;2023-03-03T09:15:13;0.60;99.90
29201;DHT22;16244;51.956;12.980;2023-03-03T09:17:41;0.60;99.90
29201;DHT22;16244;51.956;12.980;2023-03-03T09:20:36;0.60;99.90
29201;DHT22;16244;51.956;12.980;2023-03-03T09:23:28;0.60;99.90
29201;DHT22;16244;51.956;12.980;2023-03-03T09:25:58;0.60;99.90
29201;DHT22;16244;51.956;12.980;2023-03-03T09:28:32;0.50;99.90
29201;DHT22;16244;51.956;12.980;2023-03-03T09:31:01;0.50;99.90
29201;DHT22;16244;51.956;12.980;2023-03-03T09:33:39;0.60;99.90
29201;DHT22;16244;51.956;12.980;2023-03-03T09:36:20;0.70;99.90
29201;DHT22;16244;51.956;12.980;2023-03-03T09:38:49;0.70;99.90
29201;DHT22;16244;51.956;12.980;2023-03-03T09:41:38;0.80;99.90
29201;DHT22;16244;51.956;12.980;2023-03-03T09:47:27;0.70;99.90
29201;DHT22;16244;51.956;12.980;2023-03-03T09:50:04;0.70;99.90
29201;DHT22;16244;51.956;12.980;2023-03-03T09:52:48;0.80;99.90
29201;DHT22;16244;51.956;12.980;2023-03-03T09:55:33;0.80;99.90
29201;DHT22;16244;51.956;12.980;2023-03-03T10:01:15;0.60;99.90
29201;DHT22;16244;51.956;12.980;2023-03-03T10:06:44;0.70;99.90
29201;DHT22;16244;51.956;12.980;2023-03-03T10:09:40;0.80;99.90
29201;DHT22;16244;51.956;12.980;2023-03-03T10:12:16;0.60;99.90
29201;DHT22;16244;51.956;12.980;2023-03-03T10:14:55;0.70;99.90
29201;DHT22;16244;51.956;12.980;2023-03-03T10:17:34;0.80;99.90
29201;DHT22;16244;51.956;12.980;2023-03-03T10:20:15;0.90;99.90
29201;DHT22;16244;51.956;12.980;2023-03-03T10:22:52;1.00;99.90
29201;DHT22;16244;51.956;12.980;2023-03-03T10:25:28;1.00;99.90
29201;DHT22;16244;51.956;12.980;2023-03-03T10:28:09;1.10;99.90
29201;DHT22;16244;51.956;12.980;2023-03-03T10:30:46;1.10;99.90
29201;DHT22;16244;51.956;12.980;2023-03-03T10:33:23;0.90;99.90
29201;DHT22;16244;51.956;12.980;2023-03-03T10:36:16;1.00;99.90
29201;DHT22;16244;51.956;12.980;2023-03-03T10:38:55;1.10;99.90
29201;DHT22;16244;51.956;12.980;2023-03-03T10:41:42;1.30;99.90
29201;DHT22;16244;51.956;12.980;2023-03-03T10:44:30;1.30;99.90
29201;DHT22;16244;51.956;12.980;2023-03-03T10:47:21;1.30;99.90
29201;DHT22;16244;51.956;12.980;2023-03-03T10:50:00;1.30;99.90
29201;DHT22;16244;51.956;12.980;2023-03-03T10:52:38;1.30;99.90
29201;DHT22;16244;51.956;12.980;2023-03-03T10:55:25;1.40;99.90
29201;DHT22;16244;51.956;12.980;2023-03-03T10:58:05;1.50;99.90
29201;DHT22;16244;51.956;12.980;2023-03-03T11:00:39;1.60;99.90
29201;DHT22;16244;51.956;12.980;2023-03-03T11:03:29;1.60;99.90
29201;DHT22;16244;51.956;12.980;2023-03-03T11:06:00;1.60;99.90
29201;DHT22;16244;51.956;12.980;2023-03-03T11:08:33;1.60;99.90
29201;DHT22;16244;51.956;12.980;2023-03-03T11:11:09;1.60;99.90
29201;DHT22;16244;51.956;12.980;2023-03-03T11:13:45;1.70;99.90
29201;DHT22;16244;51.956;12.980;2023-03-03T11:16:24;1.60;99.90
29201;DHT22;16244;51.956;12.980;2023-03-03T11:19:09;1.70;99.90
29201;DHT22;16244;51.956;12.980;2023-03-03T11:21:46;1.70;99.90
29201;DHT22;16244;51.956;12.980;2023-03-03T11:24:27;1.80;99.90
29201;DHT22;16244;51.956;12.980;2023-03-03T11:27:11;1.90;99.90
29201;DHT22;16244;51.956;12.980;2023-03-03T11:30:10;2.10;99.90
29201;DHT22;16244;51.956;12.980;2023-03-03T11:32:48;2.20;99.90
29201;DHT22;16244;51.956;12.980;2023-03-03T11:35:22;2.20;99.80
29201;DHT22;16244;51.956;12.980;2023-03-03T11:38:01;2.20;99.40
29201;DHT22;16244;51.956;12.980;2023-03-03T11:40:40;2.30;99.70
29201;DHT22;16244;51.956;12.980;2023-03-03T11:43:17;2.30;99.50
29201;DHT22;16244;51.956;12.980;2023-03-03T11:45:52;2.40;99.50
29201;DHT22;16244;51.956;12.980;2023-03-03T11:48:33;2.30;99.00
29201;DHT22;16244;51.956;12.980;2023-03-03T11:51:05;2.20;98.70
29201;DHT22;16244;51.956;12.980;2023-03-03T11:53:47;2.10;99.10
29201;DHT22;16244;51.956;12.980;2023-03-03T11:56:21;2.20;99.50
29201;DHT22;16244;51.956;12.980;2023-03-03T11:58:57;2.50;99.10
29201;DHT22;16244;51.956;12.980;2023-03-03T12:01:31;2.50;99.10
29201;DHT22;16244;51.956;12.980;2023-03-03T12:04:02;2.60;98.70
29201;DHT22;16244;51.956;12.980;2023-03-03T12:06:39;2.60;98.20
29201;DHT22;16244;51.956;12.980;2023-03-03T12:09:32;2.70;98.20
29201;DHT22;16244;51.956;12.980;2023-03-03T12:12:05;2.80;98.00
29201;DHT22;16244;51.956;12.980;2023-03-03T12:14:47;2.80;97.30
29201;DHT22;16244;51.956;12.980;2023-03-03T12:17:31;2.90;96.80
29201;DHT22;16244;51.956;12.980;2023-03-03T12:20:08;2.80;96.50
29201;DHT22;16244;51.956;12.980;2023-03-03T12:22:49;2.90;97.70
29201;DHT22;16244;51.956;12.980;2023-03-03T12:25:24;2.90;97.40
29201;DHT22;16244;51.956;12.980;2023-03-03T12:28:01;2.90;97.20
29201;DHT22;16244;51.956;12.980;2023-03-03T12:30:40;3.00;97.10
29201;DHT22;16244;51.956;12.980;2023-03-03T12:33:17;3.00;96.50
29201;DHT22;16244;51.956;12.980;2023-03-03T12:35:54;3.10;96.80
29201;DHT22;16244;51.956;12.980;2023-03-03T12:38:34;3.10;97.10
29201;DHT22;16244;51.956;12.980;2023-03-03T12:41:08;3.30;96.80
29201;DHT22;16244;51.956;12.980;2023-03-03T12:43:52;3.40;95.90
29201;DHT22;16244;51.956;12.980;2023-03-03T12:46:24;3.50;96.00
29201;DHT22;16244;51.956;12.980;2023-03-03T12:48:55;3.50;96.20
29201;DHT22;16244;51.956;12.980;2023-03-03T12:51:32;3.40;95.70
29201;DHT22;16244;51.956;12.980;2023-03-03T12:54:16;3.50;96.20
29201;DHT22;16244;51.956;12.980;2023-03-03T12:56:52;3.60;96.40
29201;DHT22;16244;51.956;12.980;2023-03-03T12:59:25;3.60;95.50
29201;DHT22;16244;51.956;12.980;2023-03-03T13:02:14;3.50;95.90
29201;DHT22;16244;51.956;12.980;2023-03-03T13:04:53;3.60;95.50
29201;DHT22;16244;51.956;12.980;2023-03-03T13:07:26;3.80;95.30
29201;DHT22;16244;51.956;12.980;2023-03-03T13:10:05;3.60;95.00
29201;DHT22;16244;51.956;12.980;2023-03-03T13:12:39;3.70;94.60
29201;DHT22;16244;51.956;12.980;2023-03-03T13:15:14;3.60;94.10
29201;DHT22;16244;51.956;12.980;2023-03-03T13:17:51;3.50;94.90
29201;DHT22;16244;51.956;12.980;2023-03-03T13:20:33;3.40;95.70
29201;DHT22;16244;51.956;12.980;2023-03-03T13:23:07;3.40;95.90
29201;DHT22;16244;51.956;12.980;2023-03-03T13:25:46;3.30;95.50
29201;DHT22;16244;51.956;12.980;2023-03-03T13:28:23;3.30;96.30
29201;DHT22;16244;51.956;12.980;2023-03-03T13:30:56;3.30;96.10
29201;DHT22;16244;51.956;12.980;2023-03-03T13:33:29;3.30;96.10
29201;DHT22;16244;51.956;12.980;2023-03-03T13:36:05;3.60;95.30
29201;DHT22;16244;51.956;12.980;2023-03-03T13:38:36;3.50;95.90
29201;DHT22;16244;51.956;12.980;2023-03-03T13:41:10;3.60;95.50
29201;DHT22;16244;51.956;12.980;2023-03-03T13:43:44;3.60;95.10
29201;DHT22;16244;51.956;12.980;2023-03-03T13:46:17;3.70;95.20
29201;DHT22;16244;51.956;12.980;2023-03-03T13:48:56;3.70;94.70
29201;DHT22;16244;51.956;12.980;2023-03-03T13:51:38;3.70;95.30
29201;DHT22;16244;51.956;12.980;2023-03-03T13:54:17;3.70;95.20
29201;DHT22;16244;51.956;12.980;2023-03-03T13:57:03;3.70;95.30
29201;DHT22;16244;51.956;12.980;2023-03-03T13:59:38;3.70;94.90
29201;DHT22;16244;51.956;12.980;2023-03-03T14:02:26;3.60;95.60
29201;DHT22;16244;51.956;12.980;2023-03-03T14:05:01;3.60;95.70
29201;DHT22;16244;51.956;12.980;2023-03-03T14:07:34;3.70;95.10
29201;DHT22;16244;51.956;12.980;2023-03-03T14:10:10;3.60;95.30
29201;DHT22;16244;51.956;12.980;2023-03-03T14:12:48;3.60;95.60
29201;DHT22;16244;51.956;12.980;2023-03-03T14:15:21;3.50;95.30
29201;DHT22;16244;51.956;12.980;2023-03-03T14:18:15;3.70;95.40
29201;DHT22;16244;51.956;12.980;2023-03-03T14:20:47;3.50;95.30
29201;DHT22;16244;51.956;12.980;2023-03-03T14:23:20;3.50;96.10
29201;DHT22;16244;51.956;12.980;2023-03-03T14:25:56;3.50;96.00
29201;DHT22;16244;51.956;12.980;2023-03-03T14:28:25;3.60;95.80
29201;DHT22;16244;51.956;12.980;2023-03-03T14:30:54;3.60;95.70
29201;DHT22;16244;51.956;12.980;2023-03-03T14:33:28;3.50;95.20
29201;DHT22;16244;51.956;12.980;2023-03-03T14:36:04;3.50;95.40
29201;DHT22;16244;51.956;12.980;2023-03-03T14:38:43;3.60;95.60
29201;DHT22;16244;51.956;12.980;2023-03-03T14:41:32;3.60;95.70
29201;DHT22;16244;51.956;12.980;2023-03-03T14:44:01;3.60;95.60
29201;DHT22;16244;51.956;12.980;2023-03-03T14:47:00;3.70;95.70
29201;DHT22;16244;51.956;12.980;2023-03-03T14:49:31;3.50;96.10
29201;DHT22;16244;51.956;12.980;2023-03-03T14:52:02;3.60;96.40
29201;DHT22;16244;51.956;12.980;2023-03-03T14:54:36;3.60;96.00
29201;DHT22;16244;51.956;12.980;2023-03-03T14:57:09;3.60;95.90
29201;DHT22;16244;51.956;12.980;2023-03-03T14:59:38;3.70;95.90
29201;DHT22;16244;51.956;12.980;2023-03-03T15:02:27;3.70;95.60
29201;DHT22;16244;51.956;12.980;2023-03-03T15:05:18;3.50;95.80
29201;DHT22;16244;51.956;12.980;2023-03-03T15:07:48;3.60;96.30
29201;DHT22;16244;51.956;12.980;2023-03-03T15:10:28;3.70;95.70
29201;DHT22;16244;51.956;12.980;2023-03-03T15:12:56;3.70;95.00
29201;DHT22;16244;51.956;12.980;2023-03-03T15:15:25;3.70;95.30
29201;DHT22;16244;51.956;12.980;2023-03-03T15:17:59;3.70;95.50
29201;DHT22;16244;51.956;12.980;2023-03-03T15:20:38;3.70;95.10
29201;DHT22;16244;51.956;12.980;2023-03-03T15:23:34;3.70;95.20
29201;DHT22;16244;51.956;12.980;2023-03-03T15:26:10;3.70;95.20
29201;DHT22;16244;51.956;12.980;2023-03-03T15:28:50;3.60;95.20
29201;DHT22;16244;51.956;12.980;2023-03-03T15:31:30;3.60;95.50
29201;DHT22;16244;51.956;12.980;2023-03-03T15:34:16;3.60;95.10
29201;DHT22;16244;51.956;12.980;2023-03-03T15:36:52;3.60;95.50
29201;DHT22;16244;51.956;12.980;2023-03-03T15:39:29;3.60;95.50
29201;DHT22;16244;51.956;12.980;2023-03-03T15:42:02;3.70;95.40
29201;DHT22;16244;51.956;12.980;2023-03-03T15:44:37;3.70;95.20
29201;DHT22;16244;51.956;12.980;2023-03-03T15:47:22;3.70;95.50
29201;DHT22;16244;51.956;12.980;2023-03-03T15:50:14;3.70;95.70
29201;DHT22;16244;51.956;12.980;2023-03-03T15:52:54;3.70;95.80
29201;DHT22;16244;51.956;12.980;2023-03-03T15:55:35;3.70;95.10
29201;DHT22;16244;51.956;12.980;2023-03-03T15:58:31;3.60;95.10
29201;DHT22;16244;51.956;12.980;2023-03-03T16:01:06;3.60;95.20
29201;DHT22;16244;51.956;12.980;2023-03-03T16:03:41;3.60;95.50
29201;DHT22;16244;51.956;12.980;2023-03-03T16:06:16;3.50;95.80
29201;DHT22;16244;51.956;12.980;2023-03-03T16:08:51;3.60;95.90
29201;DHT22;16244;51.956;12.980;2023-03-03T16:11:24;3.70;95.80
29201;DHT22;16244;51.956;12.980;2023-03-03T16:14:15;3.60;95.30